sensor_id;sensor_type;location;lat;lon;timestamp;P1;durP1;ratioP1;P2;durP2;ratioP2
6376;SDS011;3221;48.858;10.128;2023-05-07T00:02:07;2.20;;;1.80;;
6376;SDS011;3221;48.858;10.128;2023-05-07T00:04:34;2.90;;;2.00;;
6376;SDS011;3221;48.858;10.128;2023-05-07T00:07:04;1.90;;;1.63;;
6376;SDS011;3221;48.858;10.128;2023-05-07T00:09:31;2.10;;;1.90;;
6376;SDS011;3221;48.858;10.128;2023-05-07T00:11:58;3.83;;;2.10;;
6376;SDS011;3221;48.858;10.128;2023-05-07T00:14:26;3.53;;;2.03;;
6376;SDS011;3221;48.858;10.128;2023-05-07T00:16:52;3.07;;;1.80;;
6376;SDS011;3221;48.858;10.128;2023-05-07T00:19:20;1.70;;;1.60;;
6376;SDS011;3221;48.858;10.128;2023-05-07T00:21:46;3.60;;;1.80;;
6376;SDS011;3221;48.858;10.128;2023-05-07T00:24:13;2.03;;;1.90;;
6376;SDS011;3221;48.858;10.128;2023-05-07T00:26:40;2.37;;;1.77;;
6376;SDS011;3221;48.858;10.128;2023-05-07T00:29:07;2.10;;;1.80;;
6376;SDS011;3221;48.858;10.128;2023-05-07T00:31:34;2.13;;;1.93;;
6376;SDS011;3221;48.858;10.128;2023-05-07T00:34:01;2.10;;;2.00;;
6376;SDS011;3221;48.858;10.128;2023-05-07T00:36:28;2.50;;;2.10;;
6376;SDS011;3221;48.858;10.128;2023-05-07T00:38:56;3.27;;;1.90;;
6376;SDS011;3221;48.858;10.128;2023-05-07T00:41:26;3.73;;;2.00;;
6376;SDS011;3221;48.858;10.128;2023-05-07T00:43:53;2.60;;;1.87;;
6376;SDS011;3221;48.858;10.128;2023-05-07T00:46:20;2.03;;;1.87;;
6376;SDS011;3221;48.858;10.128;2023-05-07T00:48:47;1.90;;;1.70;;
6376;SDS011;3221;48.858;10.128;2023-05-07T00:51:16;1.90;;;1.80;;
6376;SDS011;3221;48.858;10.128;2023-05-07T00:53:44;1.67;;;1.57;;
6376;SDS011;3221;48.858;10.128;2023-05-07T00:56:11;3.03;;;1.90;;
6376;SDS011;3221;48.858;10.128;2023-05-07T00:58:38;1.60;;;1.50;;
6376;SDS011;3221;48.858;10.128;2023-05-07T01:01:06;2.60;;;1.83;;
6376;SDS011;3221;48.858;10.128;2023-05-07T01:03:33;2.00;;;1.70;;
6376;SDS011;3221;48.858;10.128;2023-05-07T01:06:01;3.10;;;1.70;;
6376;SDS011;3221;48.858;10.128;2023-05-07T01:08:29;1.87;;;1.77;;
6376;SDS011;3221;48.858;10.128;2023-05-07T01:10:57;1.90;;;1.70;;
6376;SDS011;3221;48.858;10.128;2023-05-07T01:13:24;3.13;;;1.83;;
6376;SDS011;3221;48.858;10.128;2023-05-07T01:15:52;2.63;;;1.93;;
6376;SDS011;3221;48.858;10.128;2023-05-07T01:18:19;2.60;;;1.80;;
6376;SDS011;3221;48.858;10.128;2023-05-07T01:20:46;2.10;;;1.63;;
6376;SDS011;3221;48.858;10.128;2023-05-07T01:23:13;1.87;;;1.67;;
6376;SDS011;3221;48.858;10.128;2023-05-07T01:25:41;1.93;;;1.47;;
6376;SDS011;3221;48.858;10.128;2023-05-07T01:28:10;1.70;;;1.60;;
6376;SDS011;3221;48.858;10.128;2023-05-07T01:30:39;2.40;;;1.90;;
6376;SDS011;3221;48.858;10.128;2023-05-07T01:33:12;2.63;;;2.00;;
6376;SDS011;3221;48.858;10.128;2023-05-07T01:35:42;2.40;;;1.80;;
6376;SDS011;3221;48.858;10.128;2023-05-07T01:38:12;2.80;;;1.70;;
6376;SDS011;3221;48.858;10.128;2023-05-07T01:40:39;2.30;;;1.70;;
6376;SDS011;3221;48.858;10.128;2023-05-07T01:43:07;2.10;;;1.50;;
6376;SDS011;3221;48.858;10.128;2023-05-07T01:45:36;1.83;;;1.73;;
6376;SDS011;3221;48.858;10.128;2023-05-07T01:48:05;3.63;;;2.27;;
6376;SDS011;3221;48.858;10.128;2023-05-07T01:50:33;2.20;;;1.70;;
6376;SDS011;3221;48.858;10.128;2023-05-07T01:53:01;2.97;;;1.90;;
6376;SDS011;3221;48.858;10.128;2023-05-07T01:55:29;4.07;;;2.00;;
6376;SDS011;3221;48.858;10.128;2023-05-07T01:57:55;2.50;;;1.90;;
6376;SDS011;3221;48.858;10.128;2023-05-07T02:00:22;2.77;;;2.10;;
6376;SDS011;3221;48.858;10.128;2023-05-07T02:02:49;1.80;;;1.70;;
6376;SDS011;3221;48.858;10.128;2023-05-07T02:05:31;2.20;;;1.90;;
6376;SDS011;3221;48.858;10.128;2023-05-07T02:08:03;2.30;;;1.77;;
6376;SDS011;3221;48.858;10.128;2023-05-07T02:10:30;3.57;;;2.00;;
6376;SDS011;3221;48.858;10.128;2023-05-07T02:12:58;2.00;;;1.90;;
6376;SDS011;3221;48.858;10.128;2023-05-07T02:15:28;4.10;;;2.50;;
6376;SDS011;3221;48.858;10.128;2023-05-07T02:20:31;2.47;;;2.10;;
6376;SDS011;3221;48.858;10.128;2023-05-07T02:22:58;2.10;;;1.90;;
6376;SDS011;3221;48.858;10.128;2023-05-07T02:25:26;2.47;;;2.23;;
6376;SDS011;3221;48.858;10.128;2023-05-07T02:27:53;2.53;;;2.10;;
6376;SDS011;3221;48.858;10.128;2023-05-07T02:30:25;1.97;;;1.87;;
6376;SDS011;3221;48.858;10.128;2023-05-07T02:32:55;3.97;;;2.20;;
6376;SDS011;3221;48.858;10.128;2023-05-07T02:35:23;5.60;;;2.40;;
6376;SDS011;3221;48.858;10.128;2023-05-07T02:37:51;4.43;;;2.20;;
6376;SDS011;3221;48.858;10.128;2023-05-07T02:40:18;2.23;;;1.90;;
6376;SDS011;3221;48.858;10.128;2023-05-07T02:42:45;2.60;;;2.40;;
6376;SDS011;3221;48.858;10.128;2023-05-07T02:45:13;2.53;;;2.33;;
6376;SDS011;3221;48.858;10.128;2023-05-07T02:47:41;4.13;;;2.50;;
6376;SDS011;3221;48.858;10.128;2023-05-07T02:50:08;3.77;;;2.50;;
6376;SDS011;3221;48.858;10.128;2023-05-07T02:52:36;2.47;;;2.27;;
6376;SDS011;3221;48.858;10.128;2023-05-07T02:55:03;2.70;;;2.30;;
6376;SDS011;3221;48.858;10.128;2023-05-07T02:57:31;4.07;;;2.50;;
6376;SDS011;3221;48.858;10.128;2023-05-07T02:59:58;3.40;;;2.40;;
6376;SDS011;3221;48.858;10.128;2023-05-07T03:02:28;3.63;;;2.47;;
6376;SDS011;3221;48.858;10.128;2023-05-07T03:04:55;2.50;;;2.30;;
6376;SDS011;3221;48.858;10.128;2023-05-07T03:07:22;2.77;;;2.30;;
6376;SDS011;3221;48.858;10.128;2023-05-07T03:09:49;3.50;;;2.67;;
6376;SDS011;3221;48.858;10.128;2023-05-07T03:12:16;3.57;;;3.00;;
6376;SDS011;3221;48.858;10.128;2023-05-07T03:14:43;4.23;;;2.80;;
6376;SDS011;3221;48.858;10.128;2023-05-07T03:17:10;2.80;;;2.60;;
6376;SDS011;3221;48.858;10.128;2023-05-07T03:19:37;3.43;;;2.80;;
6376;SDS011;3221;48.858;10.128;2023-05-07T03:22:04;2.57;;;2.37;;
6376;SDS011;3221;48.858;10.128;2023-05-07T03:24:31;2.77;;;2.53;;
6376;SDS011;3221;48.858;10.128;2023-05-07T03:26:57;2.67;;;2.43;;
6376;SDS011;3221;48.858;10.128;2023-05-07T03:29:24;2.70;;;2.50;;
6376;SDS011;3221;48.858;10.128;2023-05-07T03:31:51;2.57;;;2.37;;
6376;SDS011;3221;48.858;10.128;2023-05-07T03:34:18;3.30;;;3.00;;
6376;SDS011;3221;48.858;10.128;2023-05-07T03:36:48;4.13;;;3.73;;
6376;SDS011;3221;48.858;10.128;2023-05-07T03:39:16;3.93;;;3.40;;
6376;SDS011;3221;48.858;10.128;2023-05-07T03:41:43;3.23;;;2.93;;
6376;SDS011;3221;48.858;10.128;2023-05-07T03:44:10;3.80;;;3.40;;
6376;SDS011;3221;48.858;10.128;2023-05-07T03:46:38;3.50;;;2.97;;
6376;SDS011;3221;48.858;10.128;2023-05-07T03:49:06;3.47;;;3.17;;
6376;SDS011;3221;48.858;10.128;2023-05-07T03:51:33;4.10;;;3.30;;
6376;SDS011;3221;48.858;10.128;2023-05-07T03:53:59;3.87;;;3.27;;
6376;SDS011;3221;48.858;10.128;2023-05-07T03:56:29;3.27;;;2.97;;
6376;SDS011;3221;48.858;10.128;2023-05-07T03:58:59;5.57;;;3.00;;
6376;SDS011;3221;48.858;10.128;2023-05-07T04:01:27;3.50;;;3.20;;
6376;SDS011;3221;48.858;10.128;2023-05-07T04:03:55;3.60;;;3.23;;
6376;SDS011;3221;48.858;10.128;2023-05-07T04:06:23;3.60;;;3.30;;
6376;SDS011;3221;48.858;10.128;2023-05-07T04:08:50;3.53;;;3.13;;
6376;SDS011;3221;48.858;10.128;2023-05-07T04:11:17;3.63;;;3.33;;
6376;SDS011;3221;48.858;10.128;2023-05-07T04:13:44;3.80;;;3.40;;
6376;SDS011;3221;48.858;10.128;2023-05-07T04:16:11;4.10;;;3.70;;
6376;SDS011;3221;48.858;10.128;2023-05-07T04:18:38;4.17;;;3.60;;
6376;SDS011;3221;48.858;10.128;2023-05-07T04:21:05;4.40;;;3.40;;
6376;SDS011;3221;48.858;10.128;2023-05-07T04:23:39;3.70;;;3.30;;
6376;SDS011;3221;48.858;10.128;2023-05-07T04:26:09;3.73;;;3.17;;
6376;SDS011;3221;48.858;10.128;2023-05-07T04:28:42;5.00;;;3.63;;
6376;SDS011;3221;48.858;10.128;2023-05-07T04:31:09;3.93;;;3.37;;
6376;SDS011;3221;48.858;10.128;2023-05-07T04:33:37;4.17;;;3.53;;
6376;SDS011;3221;48.858;10.128;2023-05-07T04:36:06;3.80;;;3.50;;
6376;SDS011;3221;48.858;10.128;2023-05-07T04:38:40;3.80;;;3.30;;
6376;SDS011;3221;48.858;10.128;2023-05-07T04:41:08;4.00;;;3.27;;
6376;SDS011;3221;48.858;10.128;2023-05-07T04:43:39;3.80;;;3.50;;
6376;SDS011;3221;48.858;10.128;2023-05-07T04:46:06;4.57;;;3.90;;
6376;SDS011;3221;48.858;10.128;2023-05-07T04:48:34;6.10;;;4.43;;
6376;SDS011;3221;48.858;10.128;2023-05-07T04:51:03;4.40;;;4.00;;
6376;SDS011;3221;48.858;10.128;2023-05-07T04:53:30;4.57;;;4.13;;
6376;SDS011;3221;48.858;10.128;2023-05-07T04:55:57;4.73;;;4.30;;
6376;SDS011;3221;48.858;10.128;2023-05-07T04:58:31;5.07;;;4.53;;
6376;SDS011;3221;48.858;10.128;2023-05-07T05:00:58;5.20;;;4.53;;
6376;SDS011;3221;48.858;10.128;2023-05-07T05:03:27;6.30;;;4.20;;
6376;SDS011;3221;48.858;10.128;2023-05-07T05:05:54;5.50;;;4.60;;
6376;SDS011;3221;48.858;10.128;2023-05-07T05:08:22;4.43;;;4.10;;
6376;SDS011;3221;48.858;10.128;2023-05-07T05:10:49;5.10;;;4.60;;
6376;SDS011;3221;48.858;10.128;2023-05-07T05:13:17;5.10;;;4.60;;
6376;SDS011;3221;48.858;10.128;2023-05-07T05:15:45;5.33;;;4.17;;
6376;SDS011;3221;48.858;10.128;2023-05-07T05:18:12;6.10;;;5.07;;
6376;SDS011;3221;48.858;10.128;2023-05-07T05:20:39;5.40;;;4.70;;
6376;SDS011;3221;48.858;10.128;2023-05-07T05:23:07;6.53;;;4.77;;
6376;SDS011;3221;48.858;10.128;2023-05-07T05:25:36;6.33;;;4.43;;
6376;SDS011;3221;48.858;10.128;2023-05-07T05:28:03;6.10;;;5.10;;
6376;SDS011;3221;48.858;10.128;2023-05-07T05:30:32;6.20;;;5.03;;
6376;SDS011;3221;48.858;10.128;2023-05-07T05:32:59;5.60;;;5.00;;
6376;SDS011;3221;48.858;10.128;2023-05-07T05:35:27;6.20;;;5.03;;
6376;SDS011;3221;48.858;10.128;2023-05-07T05:37:56;5.80;;;5.20;;
6376;SDS011;3221;48.858;10.128;2023-05-07T05:40:23;5.67;;;5.13;;
6376;SDS011;3221;48.858;10.128;2023-05-07T05:42:51;5.57;;;5.07;;
6376;SDS011;3221;48.858;10.128;2023-05-07T05:45:18;5.30;;;4.80;;
6376;SDS011;3221;48.858;10.128;2023-05-07T05:47:45;5.53;;;5.00;;
6376;SDS011;3221;48.858;10.128;2023-05-07T05:50:12;6.73;;;4.77;;
6376;SDS011;3221;48.858;10.128;2023-05-07T05:52:39;4.80;;;4.30;;
6376;SDS011;3221;48.858;10.128;2023-05-07T05:55:07;7.77;;;5.03;;
6376;SDS011;3221;48.858;10.128;2023-05-07T05:57:36;5.43;;;4.80;;
6376;SDS011;3221;48.858;10.128;2023-05-07T06:00:03;4.83;;;4.33;;
6376;SDS011;3221;48.858;10.128;2023-05-07T06:02:32;7.70;;;4.67;;
6376;SDS011;3221;48.858;10.128;2023-05-07T06:04:59;4.60;;;4.20;;
6376;SDS011;3221;48.858;10.128;2023-05-07T06:07:26;4.00;;;3.60;;
6376;SDS011;3221;48.858;10.128;2023-05-07T06:09:54;6.20;;;4.20;;
6376;SDS011;3221;48.858;10.128;2023-05-07T06:12:22;4.97;;;4.43;;
6376;SDS011;3221;48.858;10.128;2023-05-07T06:14:48;5.37;;;4.33;;
6376;SDS011;3221;48.858;10.128;2023-05-07T06:17:16;5.23;;;4.23;;
6376;SDS011;3221;48.858;10.128;2023-05-07T06:19:47;5.83;;;4.50;;
6376;SDS011;3221;48.858;10.128;2023-05-07T06:22:16;4.23;;;3.80;;
6376;SDS011;3221;48.858;10.128;2023-05-07T06:24:43;4.57;;;4.17;;
6376;SDS011;3221;48.858;10.128;2023-05-07T06:27:10;5.10;;;4.07;;
6376;SDS011;3221;48.858;10.128;2023-05-07T06:29:38;4.07;;;3.63;;
6376;SDS011;3221;48.858;10.128;2023-05-07T06:32:12;4.13;;;3.73;;
6376;SDS011;3221;48.858;10.128;2023-05-07T06:34:42;5.70;;;4.20;;
6376;SDS011;3221;48.858;10.128;2023-05-07T06:37:09;5.47;;;4.20;;
6376;SDS011;3221;48.858;10.128;2023-05-07T06:39:49;6.27;;;4.30;;
6376;SDS011;3221;48.858;10.128;2023-05-07T06:42:16;6.17;;;3.80;;
6376;SDS011;3221;48.858;10.128;2023-05-07T06:44:46;6.93;;;3.97;;
6376;SDS011;3221;48.858;10.128;2023-05-07T06:47:15;4.60;;;4.20;;
6376;SDS011;3221;48.858;10.128;2023-05-07T06:49:45;4.80;;;4.00;;
6376;SDS011;3221;48.858;10.128;2023-05-07T06:52:15;5.23;;;4.10;;
6376;SDS011;3221;48.858;10.128;2023-05-07T06:54:43;5.80;;;3.77;;
6376;SDS011;3221;48.858;10.128;2023-05-07T06:57:13;3.97;;;3.67;;
6376;SDS011;3221;48.858;10.128;2023-05-07T06:59:40;4.47;;;3.40;;
6376;SDS011;3221;48.858;10.128;2023-05-07T07:02:07;4.10;;;3.70;;
6376;SDS011;3221;48.858;10.128;2023-05-07T07:04:35;5.00;;;3.60;;
6376;SDS011;3221;48.858;10.128;2023-05-07T07:07:05;3.83;;;3.53;;
6376;SDS011;3221;48.858;10.128;2023-05-07T07:09:32;4.27;;;3.70;;
6376;SDS011;3221;48.858;10.128;2023-05-07T07:12:01;6.03;;;3.90;;
6376;SDS011;3221;48.858;10.128;2023-05-07T07:14:29;4.33;;;3.43;;
6376;SDS011;3221;48.858;10.128;2023-05-07T07:16:56;3.40;;;3.10;;
6376;SDS011;3221;48.858;10.128;2023-05-07T07:19:23;3.77;;;3.40;;
6376;SDS011;3221;48.858;10.128;2023-05-07T07:21:53;3.90;;;3.40;;
6376;SDS011;3221;48.858;10.128;2023-05-07T07:24:20;7.40;;;3.37;;
6376;SDS011;3221;48.858;10.128;2023-05-07T07:26:52;3.77;;;3.07;;
6376;SDS011;3221;48.858;10.128;2023-05-07T07:29:20;3.30;;;2.87;;
6376;SDS011;3221;48.858;10.128;2023-05-07T07:31:48;3.70;;;2.97;;
6376;SDS011;3221;48.858;10.128;2023-05-07T07:34:17;2.83;;;2.63;;
6376;SDS011;3221;48.858;10.128;2023-05-07T07:36:44;3.37;;;2.90;;
6376;SDS011;3221;48.858;10.128;2023-05-07T07:39:15;3.30;;;2.70;;
6376;SDS011;3221;48.858;10.128;2023-05-07T07:41:44;2.80;;;2.60;;
6376;SDS011;3221;48.858;10.128;2023-05-07T07:44:12;2.83;;;2.63;;
6376;SDS011;3221;48.858;10.128;2023-05-07T07:46:44;3.73;;;2.70;;
6376;SDS011;3221;48.858;10.128;2023-05-07T07:49:12;4.40;;;2.60;;
6376;SDS011;3221;48.858;10.128;2023-05-07T07:51:39;3.87;;;2.80;;
6376;SDS011;3221;48.858;10.128;2023-05-07T07:54:07;2.90;;;2.60;;
6376;SDS011;3221;48.858;10.128;2023-05-07T07:56:35;3.03;;;2.73;;
6376;SDS011;3221;48.858;10.128;2023-05-07T07:59:03;2.90;;;2.70;;
6376;SDS011;3221;48.858;10.128;2023-05-07T08:01:31;2.70;;;2.50;;
6376;SDS011;3221;48.858;10.128;2023-05-07T08:03:59;2.50;;;2.30;;
6376;SDS011;3221;48.858;10.128;2023-05-07T08:06:28;2.47;;;2.27;;
6376;SDS011;3221;48.858;10.128;2023-05-07T08:08:55;2.33;;;2.13;;
6376;SDS011;3221;48.858;10.128;2023-05-07T08:11:22;3.53;;;2.20;;
6376;SDS011;3221;48.858;10.128;2023-05-07T08:13:51;4.23;;;2.27;;
6376;SDS011;3221;48.858;10.128;2023-05-07T08:16:18;2.50;;;2.30;;
6376;SDS011;3221;48.858;10.128;2023-05-07T08:18:46;2.40;;;2.20;;
6376;SDS011;3221;48.858;10.128;2023-05-07T08:21:13;2.50;;;2.30;;
6376;SDS011;3221;48.858;10.128;2023-05-07T08:23:40;2.33;;;2.13;;
6376;SDS011;3221;48.858;10.128;2023-05-07T08:26:08;3.20;;;2.20;;
6376;SDS011;3221;48.858;10.128;2023-05-07T08:28:36;3.10;;;2.30;;
6376;SDS011;3221;48.858;10.128;2023-05-07T08:31:02;2.53;;;2.27;;
6376;SDS011;3221;48.858;10.128;2023-05-07T08:33:34;3.40;;;2.23;;
6376;SDS011;3221;48.858;10.128;2023-05-07T08:36:01;2.53;;;2.17;;
6376;SDS011;3221;48.858;10.128;2023-05-07T08:38:28;2.67;;;2.20;;
6376;SDS011;3221;48.858;10.128;2023-05-07T08:40:55;2.80;;;2.27;;
6376;SDS011;3221;48.858;10.128;2023-05-07T08:43:24;2.53;;;2.30;;
6376;SDS011;3221;48.858;10.128;2023-05-07T08:45:53;2.40;;;2.20;;
6376;SDS011;3221;48.858;10.128;2023-05-07T08:48:25;2.50;;;2.30;;
6376;SDS011;3221;48.858;10.128;2023-05-07T08:51:03;4.13;;;3.23;;
6376;SDS011;3221;48.858;10.128;2023-05-07T08:53:31;3.00;;;2.80;;
6376;SDS011;3221;48.858;10.128;2023-05-07T08:55:59;3.87;;;2.83;;
6376;SDS011;3221;48.858;10.128;2023-05-07T08:58:28;4.60;;;2.70;;
6376;SDS011;3221;48.858;10.128;2023-05-07T09:00:55;2.70;;;2.50;;
6376;SDS011;3221;48.858;10.128;2023-05-07T09:03:23;3.07;;;2.60;;
6376;SDS011;3221;48.858;10.128;2023-05-07T09:05:53;4.90;;;2.87;;
6376;SDS011;3221;48.858;10.128;2023-05-07T09:08:24;3.20;;;2.30;;
6376;SDS011;3221;48.858;10.128;2023-05-07T09:10:53;4.00;;;2.17;;
6376;SDS011;3221;48.858;10.128;2023-05-07T09:13:22;2.83;;;2.30;;
6376;SDS011;3221;48.858;10.128;2023-05-07T09:15:49;2.20;;;2.00;;
6376;SDS011;3221;48.858;10.128;2023-05-07T09:18:17;2.60;;;2.30;;
6376;SDS011;3221;48.858;10.128;2023-05-07T09:20:46;3.93;;;2.30;;
6376;SDS011;3221;48.858;10.128;2023-05-07T09:23:14;3.20;;;2.50;;
6376;SDS011;3221;48.858;10.128;2023-05-07T09:25:42;2.97;;;2.53;;
6376;SDS011;3221;48.858;10.128;2023-05-07T09:28:17;4.60;;;2.40;;
6376;SDS011;3221;48.858;10.128;2023-05-07T09:30:44;2.60;;;2.40;;
6376;SDS011;3221;48.858;10.128;2023-05-07T09:33:13;3.47;;;2.40;;
6376;SDS011;3221;48.858;10.128;2023-05-07T09:35:44;2.30;;;2.10;;
6376;SDS011;3221;48.858;10.128;2023-05-07T09:38:16;2.50;;;2.23;;
6376;SDS011;3221;48.858;10.128;2023-05-07T09:40:47;5.37;;;2.40;;
6376;SDS011;3221;48.858;10.128;2023-05-07T09:43:31;3.20;;;2.60;;
6376;SDS011;3221;48.858;10.128;2023-05-07T09:48:40;3.77;;;2.67;;
6376;SDS011;3221;48.858;10.128;2023-05-07T09:51:11;3.20;;;2.90;;
6376;SDS011;3221;48.858;10.128;2023-05-07T09:53:44;2.67;;;2.47;;
6376;SDS011;3221;48.858;10.128;2023-05-07T09:56:13;2.63;;;2.40;;
6376;SDS011;3221;48.858;10.128;2023-05-07T09:58:42;2.40;;;2.20;;
6376;SDS011;3221;48.858;10.128;2023-05-07T10:01:11;3.03;;;2.47;;
6376;SDS011;3221;48.858;10.128;2023-05-07T10:03:41;2.73;;;2.53;;
6376;SDS011;3221;48.858;10.128;2023-05-07T10:06:10;4.27;;;2.53;;
6376;SDS011;3221;48.858;10.128;2023-05-07T10:08:38;2.80;;;2.53;;
6376;SDS011;3221;48.858;10.128;2023-05-07T10:11:07;3.00;;;2.30;;
6376;SDS011;3221;48.858;10.128;2023-05-07T10:13:35;2.53;;;2.30;;
6376;SDS011;3221;48.858;10.128;2023-05-07T10:16:05;2.60;;;2.40;;
6376;SDS011;3221;48.858;10.128;2023-05-07T10:18:40;3.53;;;2.00;;
6376;SDS011;3221;48.858;10.128;2023-05-07T10:23:50;2.50;;;2.30;;
6376;SDS011;3221;48.858;10.128;2023-05-07T10:26:27;2.27;;;2.13;;
6376;SDS011;3221;48.858;10.128;2023-05-07T10:28:58;2.67;;;2.30;;
6376;SDS011;3221;48.858;10.128;2023-05-07T10:34:21;5.70;;;2.13;;
6376;SDS011;3221;48.858;10.128;2023-05-07T10:36:53;2.43;;;2.23;;
6376;SDS011;3221;48.858;10.128;2023-05-07T10:39:22;3.10;;;2.20;;
6376;SDS011;3221;48.858;10.128;2023-05-07T10:41:50;2.33;;;2.13;;
6376;SDS011;3221;48.858;10.128;2023-05-07T10:44:27;2.60;;;2.40;;
6376;SDS011;3221;48.858;10.128;2023-05-07T10:47:05;3.10;;;2.50;;
6376;SDS011;3221;48.858;10.128;2023-05-07T10:52:20;3.33;;;2.47;;
6376;SDS011;3221;48.858;10.128;2023-05-07T10:57:53;3.37;;;2.20;;
6376;SDS011;3221;48.858;10.128;2023-05-07T11:05:41;2.40;;;2.20;;
6376;SDS011;3221;48.858;10.128;2023-05-07T11:08:22;3.10;;;2.30;;
6376;SDS011;3221;48.858;10.128;2023-05-07T11:11:03;2.60;;;2.30;;
6376;SDS011;3221;48.858;10.128;2023-05-07T11:13:46;2.50;;;2.30;;
6376;SDS011;3221;48.858;10.128;2023-05-07T11:16:43;2.70;;;2.23;;
6376;SDS011;3221;48.858;10.128;2023-05-07T11:19:18;3.67;;;2.20;;
6376;SDS011;3221;48.858;10.128;2023-05-07T11:25:15;2.67;;;2.33;;
6376;SDS011;3221;48.858;10.128;2023-05-07T11:27:54;2.43;;;2.10;;
6376;SDS011;3221;48.858;10.128;2023-05-07T11:30:22;2.70;;;2.50;;
6376;SDS011;3221;48.858;10.128;2023-05-07T11:32:49;3.47;;;2.50;;
6376;SDS011;3221;48.858;10.128;2023-05-07T11:35:17;13.47;;;2.80;;
6376;SDS011;3221;48.858;10.128;2023-05-07T11:37:46;6.27;;;2.47;;
6376;SDS011;3221;48.858;10.128;2023-05-07T11:40:15;2.70;;;2.50;;
6376;SDS011;3221;48.858;10.128;2023-05-07T11:42:41;3.53;;;2.50;;
6376;SDS011;3221;48.858;10.128;2023-05-07T11:45:09;2.60;;;2.40;;
6376;SDS011;3221;48.858;10.128;2023-05-07T11:47:37;3.57;;;2.50;;
6376;SDS011;3221;48.858;10.128;2023-05-07T11:50:07;3.43;;;2.40;;
6376;SDS011;3221;48.858;10.128;2023-05-07T11:52:36;2.77;;;2.37;;
6376;SDS011;3221;48.858;10.128;2023-05-07T11:55:06;2.77;;;2.23;;
6376;SDS011;3221;48.858;10.128;2023-05-07T11:57:34;2.50;;;2.30;;
6376;SDS011;3221;48.858;10.128;2023-05-07T12:00:02;2.70;;;2.20;;
6376;SDS011;3221;48.858;10.128;2023-05-07T12:02:39;3.60;;;2.30;;
6376;SDS011;3221;48.858;10.128;2023-05-07T12:05:08;2.50;;;2.30;;
6376;SDS011;3221;48.858;10.128;2023-05-07T12:07:36;2.27;;;2.10;;
6376;SDS011;3221;48.858;10.128;2023-05-07T12:10:06;2.70;;;2.20;;
6376;SDS011;3221;48.858;10.128;2023-05-07T12:12:40;2.50;;;2.30;;
6376;SDS011;3221;48.858;10.128;2023-05-07T12:15:10;2.47;;;2.27;;
6376;SDS011;3221;48.858;10.128;2023-05-07T12:17:38;2.10;;;2.00;;
6376;SDS011;3221;48.858;10.128;2023-05-07T12:20:05;4.43;;;2.33;;
6376;SDS011;3221;48.858;10.128;2023-05-07T12:22:33;2.27;;;2.07;;
6376;SDS011;3221;48.858;10.128;2023-05-07T12:25:00;2.33;;;2.10;;
6376;SDS011;3221;48.858;10.128;2023-05-07T12:27:28;2.50;;;2.30;;
6376;SDS011;3221;48.858;10.128;2023-05-07T12:29:56;3.43;;;2.10;;
6376;SDS011;3221;48.858;10.128;2023-05-07T12:32:24;3.80;;;2.50;;
6376;SDS011;3221;48.858;10.128;2023-05-07T12:34:51;2.30;;;2.03;;
6376;SDS011;3221;48.858;10.128;2023-05-07T12:37:24;2.57;;;2.37;;
6376;SDS011;3221;48.858;10.128;2023-05-07T12:40:12;2.43;;;2.23;;
6376;SDS011;3221;48.858;10.128;2023-05-07T12:42:40;3.27;;;2.40;;
6376;SDS011;3221;48.858;10.128;2023-05-07T12:45:11;2.40;;;2.20;;
6376;SDS011;3221;48.858;10.128;2023-05-07T12:47:45;3.07;;;2.20;;
6376;SDS011;3221;48.858;10.128;2023-05-07T12:50:13;2.60;;;2.40;;
6376;SDS011;3221;48.858;10.128;2023-05-07T12:52:42;2.57;;;2.30;;
6376;SDS011;3221;48.858;10.128;2023-05-07T12:55:14;2.80;;;2.60;;
6376;SDS011;3221;48.858;10.128;2023-05-07T12:57:43;2.60;;;2.23;;
6376;SDS011;3221;48.858;10.128;2023-05-07T13:00:14;2.50;;;2.30;;
6376;SDS011;3221;48.858;10.128;2023-05-07T13:02:42;2.57;;;2.37;;
6376;SDS011;3221;48.858;10.128;2023-05-07T13:05:12;2.93;;;2.27;;
6376;SDS011;3221;48.858;10.128;2023-05-07T13:07:40;2.73;;;2.20;;
6376;SDS011;3221;48.858;10.128;2023-05-07T13:10:07;2.97;;;2.43;;
6376;SDS011;3221;48.858;10.128;2023-05-07T13:12:35;2.93;;;2.70;;
6376;SDS011;3221;48.858;10.128;2023-05-07T13:15:02;2.60;;;2.40;;
6376;SDS011;3221;48.858;10.128;2023-05-07T13:17:29;3.03;;;2.83;;
6376;SDS011;3221;48.858;10.128;2023-05-07T13:19:57;4.77;;;2.83;;
6376;SDS011;3221;48.858;10.128;2023-05-07T13:22:24;2.87;;;2.50;;
6376;SDS011;3221;48.858;10.128;2023-05-07T13:24:51;2.87;;;2.67;;
6376;SDS011;3221;48.858;10.128;2023-05-07T13:27:19;2.90;;;2.70;;
6376;SDS011;3221;48.858;10.128;2023-05-07T13:29:46;3.00;;;2.70;;
6376;SDS011;3221;48.858;10.128;2023-05-07T13:32:13;2.80;;;2.60;;
6376;SDS011;3221;48.858;10.128;2023-05-07T13:34:40;5.80;;;4.97;;
6376;SDS011;3221;48.858;10.128;2023-05-07T13:37:07;4.30;;;3.50;;
6376;SDS011;3221;48.858;10.128;2023-05-07T13:39:36;4.53;;;3.00;;
6376;SDS011;3221;48.858;10.128;2023-05-07T13:42:03;3.10;;;2.80;;
6376;SDS011;3221;48.858;10.128;2023-05-07T13:44:30;3.30;;;3.00;;
6376;SDS011;3221;48.858;10.128;2023-05-07T13:46:57;4.63;;;3.07;;
6376;SDS011;3221;48.858;10.128;2023-05-07T13:49:24;2.83;;;2.63;;
6376;SDS011;3221;48.858;10.128;2023-05-07T13:51:50;3.47;;;2.67;;
6376;SDS011;3221;48.858;10.128;2023-05-07T13:54:17;3.73;;;2.70;;
6376;SDS011;3221;48.858;10.128;2023-05-07T13:56:44;3.20;;;2.57;;
6376;SDS011;3221;48.858;10.128;2023-05-07T13:59:11;3.10;;;2.80;;
6376;SDS011;3221;48.858;10.128;2023-05-07T14:01:40;3.10;;;2.90;;
6376;SDS011;3221;48.858;10.128;2023-05-07T14:04:07;2.57;;;2.37;;
6376;SDS011;3221;48.858;10.128;2023-05-07T14:06:34;2.90;;;2.60;;
6376;SDS011;3221;48.858;10.128;2023-05-07T14:09:01;4.07;;;2.80;;
6376;SDS011;3221;48.858;10.128;2023-05-07T14:11:27;3.20;;;2.90;;
6376;SDS011;3221;48.858;10.128;2023-05-07T14:13:55;3.20;;;2.93;;
6376;SDS011;3221;48.858;10.128;2023-05-07T14:16:23;2.80;;;2.60;;
6376;SDS011;3221;48.858;10.128;2023-05-07T14:18:50;3.27;;;2.97;;
6376;SDS011;3221;48.858;10.128;2023-05-07T14:21:16;3.60;;;2.73;;
6376;SDS011;3221;48.858;10.128;2023-05-07T14:23:43;2.90;;;2.70;;
6376;SDS011;3221;48.858;10.128;2023-05-07T14:26:10;3.10;;;2.80;;
6376;SDS011;3221;48.858;10.128;2023-05-07T14:28:37;3.63;;;3.00;;
6376;SDS011;3221;48.858;10.128;2023-05-07T14:31:05;3.03;;;2.83;;
6376;SDS011;3221;48.858;10.128;2023-05-07T14:33:33;4.87;;;2.97;;
6376;SDS011;3221;48.858;10.128;2023-05-07T14:35:59;2.77;;;2.57;;
6376;SDS011;3221;48.858;10.128;2023-05-07T14:38:26;3.20;;;2.90;;
6376;SDS011;3221;48.858;10.128;2023-05-07T14:40:53;3.10;;;2.80;;
6376;SDS011;3221;48.858;10.128;2023-05-07T14:43:22;3.03;;;2.70;;
6376;SDS011;3221;48.858;10.128;2023-05-07T14:45:49;4.67;;;3.17;;
6376;SDS011;3221;48.858;10.128;2023-05-07T14:48:16;3.53;;;2.57;;
6376;SDS011;3221;48.858;10.128;2023-05-07T14:50:47;2.70;;;2.50;;
6376;SDS011;3221;48.858;10.128;2023-05-07T14:53:14;3.20;;;2.77;;
6376;SDS011;3221;48.858;10.128;2023-05-07T14:55:42;3.37;;;2.80;;
6376;SDS011;3221;48.858;10.128;2023-05-07T14:58:09;3.43;;;2.97;;
6376;SDS011;3221;48.858;10.128;2023-05-07T15:00:37;3.37;;;3.07;;
6376;SDS011;3221;48.858;10.128;2023-05-07T15:03:05;2.73;;;2.57;;
6376;SDS011;3221;48.858;10.128;2023-05-07T15:05:33;3.20;;;2.90;;
6376;SDS011;3221;48.858;10.128;2023-05-07T15:08:01;2.97;;;2.77;;
6376;SDS011;3221;48.858;10.128;2023-05-07T15:10:28;4.77;;;2.63;;
6376;SDS011;3221;48.858;10.128;2023-05-07T15:12:55;4.27;;;2.97;;
6376;SDS011;3221;48.858;10.128;2023-05-07T15:15:22;3.20;;;2.90;;
6376;SDS011;3221;48.858;10.128;2023-05-07T15:17:50;3.60;;;2.50;;
6376;SDS011;3221;48.858;10.128;2023-05-07T15:20:17;3.27;;;3.00;;
6376;SDS011;3221;48.858;10.128;2023-05-07T15:22:44;6.27;;;4.10;;
6376;SDS011;3221;48.858;10.128;2023-05-07T15:25:12;3.60;;;3.30;;
6376;SDS011;3221;48.858;10.128;2023-05-07T15:27:39;3.60;;;3.30;;
6376;SDS011;3221;48.858;10.128;2023-05-07T15:30:06;3.43;;;3.13;;
6376;SDS011;3221;48.858;10.128;2023-05-07T15:32:33;3.10;;;2.90;;
6376;SDS011;3221;48.858;10.128;2023-05-07T15:35:01;3.47;;;2.87;;